Grimsley, Tennessee
Current Conditions -  °F | °C
As of 10:53 AM on Monday 22 Dec 2014 (Local Time) from KCSV Reporting Station
Overcast Overcast  
Wind Chill: 11°   Ceiling: 1600
Heat Index: 11°   Visibility: 10mi
Dew Point:   Wind: 6mph
Humidity: 68%   Direction: 120°ESE
Pressure: 29.91"   Gusts: NA
Location:  36.27°N, 84.98°W
Report Text: KCSV 221653Z AUTO 12005KT 10SM OVC016 11/05 A2991 RMK AO2 SLP128 T01060050
Loading
Personal Weather Stations






























Interactive Weather Map New forecast layout! Learn more

10-Day Weather Forecast

Advertisements
Track Severe Weather on mobile